createdAt,value
2018-02-20T00:01:44.825Z,8.75
2018-02-20T00:04:48.311Z,8.93
2018-02-20T00:07:51.758Z,11.15
2018-02-20T00:10:55.079Z,10.55
2018-02-20T00:13:58.378Z,9.80
2018-02-20T00:17:02.637Z,10.38
2018-02-20T00:20:06.068Z,11.40
2018-02-20T00:23:09.431Z,10.77
2018-02-20T00:26:12.886Z,10.93
2018-02-20T00:29:16.290Z,11.93
2018-02-20T00:32:20.466Z,9.57
2018-02-20T00:35:23.791Z,10.77
2018-02-20T00:38:27.356Z,11.20
2018-02-20T00:41:30.682Z,13.48
2018-02-20T00:44:34.016Z,12.40
2018-02-20T00:47:37.382Z,10.05
2018-02-20T00:50:40.743Z,12.35
2018-02-20T00:53:44.427Z,12.37
2018-02-20T00:56:50.780Z,12.02
2018-02-20T00:59:54.182Z,13.50
2018-02-20T01:02:57.528Z,11.52
2018-02-20T01:06:00.888Z,14.10
2018-02-20T01:09:04.237Z,14.27
2018-02-20T01:12:07.667Z,14.70
2018-02-20T01:15:11.001Z,11.65
2018-02-20T01:18:14.441Z,12.68
2018-02-20T01:21:17.873Z,11.18
2018-02-20T01:24:21.984Z,12.65
2018-02-20T01:27:25.301Z,15.00
2018-02-20T01:30:28.754Z,12.40
2018-02-20T01:33:32.956Z,13.02
2018-02-20T01:36:36.206Z,12.20
2018-02-20T01:39:39.490Z,10.93
2018-02-20T01:42:42.863Z,12.80
2018-02-20T01:45:46.270Z,13.38
2018-02-20T01:48:49.661Z,12.60
2018-02-20T01:51:53.836Z,12.82
2018-02-20T01:54:57.210Z,14.15
2018-02-20T01:58:00.700Z,16.50
2018-02-20T02:01:04.154Z,13.18
2018-02-20T02:04:07.557Z,14.80
2018-02-20T02:07:10.933Z,11.55
2018-02-20T02:10:14.318Z,13.80
2018-02-20T02:13:17.742Z,12.50
2018-02-20T02:16:21.288Z,12.63
2018-02-20T02:19:24.674Z,11.50
2018-02-20T02:22:28.050Z,10.95
2018-02-20T02:25:31.526Z,11.90
2018-02-20T02:28:35.118Z,13.15
2018-02-20T02:31:38.520Z,11.90
2018-02-20T02:34:41.925Z,12.35
2018-02-20T02:37:45.306Z,12.65
2018-02-20T02:40:48.701Z,11.55
2018-02-20T02:43:52.015Z,11.75
2018-02-20T02:46:55.620Z,13.48
2018-02-20T02:49:59.151Z,10.90
2018-02-20T02:53:02.555Z,12.02
2018-02-20T02:56:05.925Z,13.88
2018-02-20T02:59:09.318Z,10.88
2018-02-20T03:02:13.548Z,10.35
2018-02-20T03:05:16.978Z,12.10
2018-02-20T03:08:20.343Z,14.38
2018-02-20T03:11:24.058Z,11.12
2018-02-20T03:14:27.361Z,14.15
2018-02-20T03:17:31.153Z,12.37
2018-02-20T03:20:34.846Z,12.20
2018-02-20T03:23:38.233Z,12.95
2018-02-20T03:26:42.317Z,13.45
2018-02-20T03:29:45.762Z,13.70
2018-02-20T03:32:49.287Z,13.23
2018-02-20T03:35:53.525Z,12.13
2018-02-20T03:38:57.116Z,13.10
2018-02-20T03:42:00.487Z,12.10
2018-02-20T03:45:04.606Z,13.27
2018-02-20T03:48:08.062Z,11.12
2018-02-20T03:51:11.990Z,10.32
2018-02-20T03:54:15.388Z,12.02
2018-02-20T03:57:18.959Z,12.63
2018-02-20T04:00:22.318Z,12.27
2018-02-20T04:03:25.816Z,11.25
2018-02-20T04:06:29.277Z,13.20
2018-02-20T04:09:32.902Z,12.82
2018-02-20T04:12:36.378Z,11.38
2018-02-20T04:15:40.540Z,12.00
2018-02-20T04:18:49.503Z,9.60
2018-02-20T04:21:53.746Z,12.75
2018-02-20T04:24:57.065Z,12.50
2018-02-20T04:28:01.278Z,10.35
2018-02-20T04:31:04.675Z,11.68
2018-02-20T04:34:08.109Z,11.90
2018-02-20T04:37:11.535Z,10.18
2018-02-20T04:40:14.946Z,10.30
2018-02-20T04:43:18.499Z,11.00
2018-02-20T04:46:23.008Z,11.18
2018-02-20T04:49:26.712Z,9.48
2018-02-20T04:52:30.044Z,11.68
2018-02-20T04:55:33.664Z,11.05
2018-02-20T04:58:37.109Z,11.02
2018-02-20T05:01:40.556Z,10.40
2018-02-20T05:04:44.096Z,11.43
2018-02-20T05:07:47.426Z,13.20
2018-02-20T05:10:51.173Z,11.23
2018-02-20T05:13:54.540Z,16.10
2018-02-20T05:16:58.141Z,13.75
2018-02-20T05:20:01.604Z,11.10
2018-02-20T05:23:05.166Z,13.07
2018-02-20T05:26:08.528Z,11.88
2018-02-20T05:29:12.676Z,11.38
2018-02-20T05:32:16.134Z,10.48
2018-02-20T05:35:20.308Z,10.55
2018-02-20T05:38:23.805Z,12.52
2018-02-20T05:41:27.261Z,11.27
2018-02-20T05:44:31.896Z,11.23
2018-02-20T05:47:35.428Z,11.45
2018-02-20T05:50:38.764Z,10.88
2018-02-20T05:53:42.434Z,12.48
2018-02-20T05:56:45.751Z,11.45
2018-02-20T05:59:49.122Z,12.70
2018-02-20T06:02:52.552Z,12.30
2018-02-20T06:05:55.933Z,12.35
2018-02-20T06:08:59.330Z,11.68
2018-02-20T06:12:03.076Z,10.25
2018-02-20T06:15:06.461Z,13.65
2018-02-20T06:18:10.280Z,12.20
2018-02-20T06:21:13.658Z,12.23
2018-02-20T06:24:17.822Z,10.27
2018-02-20T06:27:21.230Z,12.15
2018-02-20T06:30:24.720Z,12.85
2018-02-20T06:33:28.881Z,13.32
2018-02-20T06:36:32.271Z,13.18
2018-02-20T06:39:35.694Z,13.60
2018-02-20T06:42:39.080Z,12.70
2018-02-20T06:45:42.486Z,13.68
2018-02-20T06:48:45.908Z,13.07
2018-02-20T06:51:49.318Z,12.85
2018-02-20T06:54:52.724Z,14.85
2018-02-20T06:57:56.215Z,14.45
2018-02-20T07:00:59.621Z,11.30
2018-02-20T07:04:03.870Z,14.02
2018-02-20T07:07:07.284Z,15.55
2018-02-20T07:10:10.718Z,14.75
2018-02-20T07:13:14.164Z,15.73
2018-02-20T07:16:17.581Z,15.10
2018-02-20T07:19:21.476Z,14.02
2018-02-20T07:22:25.657Z,13.62
2018-02-20T07:25:29.199Z,13.32
2018-02-20T07:28:32.587Z,15.93
2018-02-20T07:31:36.794Z,14.63
2018-02-20T07:34:40.204Z,14.85
2018-02-20T07:37:44.439Z,15.50
2018-02-20T07:40:47.830Z,15.25
2018-02-20T07:43:52.528Z,17.17
2018-02-20T07:46:55.902Z,15.48
2018-02-20T07:49:59.306Z,16.23
2018-02-20T07:53:02.728Z,14.43
2018-02-20T07:56:06.147Z,16.33
2018-02-20T07:59:10.319Z,22.85
2018-02-20T08:02:13.722Z,17.05
2018-02-20T08:05:17.122Z,16.08
2018-02-20T08:08:21.540Z,18.83
2018-02-20T08:11:24.950Z,18.70
2018-02-20T08:14:28.424Z,16.48
2018-02-20T08:17:31.784Z,16.00
2018-02-20T08:20:35.947Z,17.15
2018-02-20T08:23:40.332Z,24.70
2018-02-20T08:26:43.930Z,24.60
2018-02-20T08:29:48.123Z,18.77
2018-02-20T08:32:52.679Z,20.23
2018-02-20T08:35:56.940Z,20.42
2018-02-20T08:39:00.398Z,17.45
2018-02-20T08:42:03.826Z,18.48
2018-02-20T08:45:07.339Z,17.77
2018-02-20T08:48:10.809Z,18.58
2018-02-20T08:51:14.245Z,17.45
2018-02-20T08:54:17.650Z,19.08
2018-02-20T08:57:21.350Z,18.87
2018-02-20T09:00:24.736Z,19.45
2018-02-20T09:03:28.151Z,19.55
2018-02-20T09:06:31.597Z,20.42
2018-02-20T09:09:35.388Z,18.85
2018-02-20T09:12:38.779Z,20.20
2018-02-20T09:15:42.202Z,20.77
2018-02-20T09:18:46.464Z,18.20
2018-02-20T09:21:50.698Z,19.95
2018-02-20T09:24:54.125Z,22.80
2018-02-20T09:27:58.343Z,22.37
2018-02-20T09:31:02.559Z,22.95
2018-02-20T09:34:05.958Z,20.00
2018-02-20T09:37:09.427Z,19.73
2018-02-20T09:40:12.860Z,17.92
2018-02-20T09:43:16.277Z,21.37
2018-02-20T09:46:19.655Z,22.10
2018-02-20T09:49:23.067Z,22.30
2018-02-20T09:52:27.290Z,19.50
2018-02-20T09:55:30.744Z,19.65
2018-02-20T09:58:34.226Z,18.73
2018-02-20T10:01:38.843Z,20.00
2018-02-20T10:04:43.510Z,21.90
2018-02-20T10:07:47.007Z,19.98
2018-02-20T10:10:50.575Z,23.07
2018-02-20T10:13:54.042Z,22.50
2018-02-20T10:16:58.305Z,23.00
2018-02-20T10:20:02.057Z,25.17
2018-02-20T10:23:05.638Z,32.53
2018-02-20T10:26:09.527Z,25.17
2018-02-20T10:29:13.041Z,25.33
2018-02-20T10:32:16.562Z,23.80
2018-02-20T10:35:19.957Z,24.77
2018-02-20T10:38:23.454Z,25.30
2018-02-20T10:41:26.896Z,24.83
2018-02-20T10:44:30.341Z,24.07
2018-02-20T10:47:33.867Z,23.13
2018-02-20T10:50:37.365Z,23.30
2018-02-20T10:53:40.879Z,23.53
2018-02-20T10:56:44.562Z,24.13
2018-02-20T10:59:48.007Z,25.20
2018-02-20T11:02:51.547Z,23.23
2018-02-20T11:05:54.932Z,23.40
2018-02-20T11:08:58.387Z,24.45
2018-02-20T11:12:02.947Z,31.62
2018-02-20T11:15:06.413Z,22.20
2018-02-20T11:18:11.063Z,25.73
2018-02-20T11:21:15.323Z,24.48
2018-02-20T11:24:18.791Z,21.20
2018-02-20T11:27:22.217Z,23.42
2018-02-20T11:30:25.694Z,24.02
2018-02-20T11:33:29.465Z,22.95
2018-02-20T11:36:33.701Z,22.83
2018-02-20T11:39:37.196Z,21.95
2018-02-20T11:42:40.601Z,21.77
2018-02-20T11:45:44.891Z,23.55
2018-02-20T11:48:48.387Z,23.65
2018-02-20T11:51:51.807Z,21.73
2018-02-20T11:54:55.217Z,18.70
2018-02-20T11:57:58.645Z,21.25
2018-02-20T12:01:02.810Z,19.33
2018-02-20T12:04:06.230Z,19.77
2018-02-20T12:07:10.472Z,20.27
2018-02-20T12:10:13.922Z,20.60
2018-02-20T12:13:17.657Z,18.02
2018-02-20T12:16:21.052Z,20.98
2018-02-20T12:19:24.936Z,16.83
2018-02-20T12:22:28.301Z,20.73
2018-02-20T12:25:31.730Z,18.25
2018-02-20T12:28:35.138Z,17.35
2018-02-20T12:31:38.601Z,14.70
2018-02-20T12:34:41.978Z,15.13
2018-02-20T12:37:46.149Z,16.40
2018-02-20T12:40:49.887Z,15.48
2018-02-20T12:43:54.086Z,13.30
2018-02-20T12:46:57.923Z,14.10
2018-02-20T12:50:02.066Z,15.38
2018-02-20T12:53:05.501Z,15.52
2018-02-20T12:56:08.892Z,16.02
2018-02-20T12:59:12.327Z,21.02
2018-02-20T13:02:16.062Z,15.90
2018-02-20T13:05:19.430Z,11.90
2018-02-20T13:08:22.794Z,19.77
2018-02-20T13:11:26.256Z,14.82
2018-02-20T13:14:30.494Z,16.85
2018-02-20T13:17:33.931Z,17.73
2018-02-20T13:20:37.373Z,22.17
2018-02-20T13:23:40.820Z,23.02
2018-02-20T13:26:44.539Z,22.10
2018-02-20T13:29:48.261Z,23.80
2018-02-20T13:32:51.704Z,22.40
2018-02-20T13:35:55.214Z,21.33
2018-02-20T13:38:58.626Z,21.62
2018-02-20T13:42:02.070Z,22.85
2018-02-20T13:45:05.509Z,20.58
2018-02-20T13:48:09.012Z,21.67
2018-02-20T13:51:12.507Z,17.42
2018-02-20T13:54:16.950Z,23.40
2018-02-20T13:57:20.412Z,22.80
2018-02-20T14:00:23.880Z,22.05
2018-02-20T14:03:27.386Z,21.30
2018-02-20T14:06:30.930Z,24.23
2018-02-20T14:09:34.711Z,22.33
2018-02-20T14:12:38.109Z,21.40
2018-02-20T14:15:41.560Z,21.62
2018-02-20T14:18:44.981Z,21.58
2018-02-20T14:21:49.227Z,21.65
2018-02-20T14:24:53.428Z,21.98
2018-02-20T14:27:56.872Z,23.15
2018-02-20T14:31:01.096Z,22.85
2018-02-20T14:34:04.552Z,20.37
2018-02-20T14:37:08.073Z,22.02
2018-02-20T14:40:11.535Z,12.95
2018-02-20T14:43:15.005Z,21.15
2018-02-20T14:46:18.473Z,20.98
2018-02-20T14:49:22.681Z,18.10
2018-02-20T14:52:26.843Z,21.37
2018-02-20T14:55:30.350Z,17.65
2018-02-20T14:58:34.150Z,13.13
2018-02-20T15:01:37.593Z,16.12
2018-02-20T15:04:41.040Z,25.25
2018-02-20T15:07:44.747Z,17.37
2018-02-20T15:10:48.174Z,33.78
2018-02-20T15:13:51.571Z,21.33
2018-02-20T15:16:55.028Z,24.05
2018-02-20T15:19:59.276Z,21.35
2018-02-20T15:23:03.446Z,20.35
2018-02-20T15:26:06.899Z,25.70
2018-02-20T15:29:10.327Z,23.17
2018-02-20T15:32:13.721Z,19.12
2018-02-20T15:35:17.228Z,14.40
2018-02-20T15:38:21.512Z,16.17
2018-02-20T15:41:24.929Z,17.17
2018-02-20T15:44:28.329Z,24.02
2018-02-20T15:47:31.791Z,32.75
2018-02-20T15:50:35.269Z,19.67
2018-02-20T15:53:38.717Z,27.67
2018-02-20T15:56:42.208Z,30.92
2018-02-20T15:59:45.824Z,33.85
2018-02-20T16:02:49.308Z,28.90
2018-02-20T16:05:52.708Z,25.45
2018-02-20T16:08:56.391Z,31.08
2018-02-20T16:11:59.914Z,35.08
2018-02-20T16:15:03.388Z,34.45
2018-02-20T16:18:06.825Z,24.23
2018-02-20T16:21:10.240Z,26.33
2018-02-20T16:24:13.628Z,26.45
2018-02-20T16:27:17.825Z,25.50
2018-02-20T16:30:21.988Z,26.70
2018-02-20T16:33:25.474Z,28.58
2018-02-20T16:36:29.717Z,29.98
2018-02-20T16:39:33.218Z,25.00
2018-02-20T16:42:36.654Z,24.42
2018-02-20T16:45:40.861Z,16.45
2018-02-20T16:48:44.469Z,29.15
2018-02-20T16:51:47.894Z,27.13
2018-02-20T16:54:51.381Z,27.33
2018-02-20T16:57:55.573Z,28.17
2018-02-20T17:00:59.051Z,25.58
2018-02-20T17:04:02.504Z,23.90
2018-02-20T17:07:06.694Z,23.80
2018-02-20T17:10:11.074Z,22.80
2018-02-20T17:13:14.516Z,25.62
2018-02-20T17:16:17.967Z,24.02
2018-02-20T17:19:21.351Z,24.63
2018-02-20T17:22:25.548Z,25.58
2018-02-20T17:25:28.947Z,21.90
2018-02-20T17:28:32.363Z,23.85
2018-02-20T17:31:36.518Z,15.00
2018-02-20T17:34:39.988Z,34.53
2018-02-20T17:37:44.262Z,30.75
2018-02-20T17:40:47.728Z,26.48
2018-02-20T17:43:51.128Z,22.17
2018-02-20T17:46:54.574Z,23.27
2018-02-20T17:49:58.837Z,23.62
2018-02-20T17:53:03.007Z,23.10
2018-02-20T17:56:06.557Z,25.88
2018-02-20T17:59:10.045Z,23.38
2018-02-20T18:02:13.518Z,24.65
2018-02-20T18:05:16.917Z,22.95
2018-02-20T18:08:21.181Z,28.87
2018-02-20T18:11:24.662Z,25.55
2018-02-20T18:14:28.851Z,21.30
2018-02-20T18:17:32.247Z,24.35
2018-02-20T18:20:35.843Z,27.75
2018-02-20T18:23:39.269Z,22.35
2018-02-20T18:26:42.747Z,20.30
2018-02-20T18:29:46.232Z,23.77
2018-02-20T18:32:50.569Z,31.73
2018-02-20T18:35:54.781Z,25.73
2018-02-20T18:38:58.305Z,31.58
2018-02-20T18:42:01.715Z,27.17
2018-02-20T18:45:05.162Z,32.13
2018-02-20T18:48:08.675Z,31.65
2018-02-20T18:51:12.181Z,28.95
2018-02-20T18:54:15.608Z,28.62
2018-02-20T18:57:19.082Z,22.58
2018-02-20T19:00:22.475Z,29.63
2018-02-20T19:03:25.886Z,28.30
2018-02-20T19:06:29.364Z,24.58
2018-02-20T19:09:33.560Z,30.85
2018-02-20T19:12:37.990Z,28.55
2018-02-20T19:15:41.437Z,32.85
2018-02-20T19:18:44.876Z,21.80
2018-02-20T19:21:50.010Z,24.87
2018-02-20T19:24:53.378Z,35.05
2018-02-20T19:27:57.618Z,25.98
2018-02-20T19:31:01.014Z,28.85
2018-02-20T19:34:05.208Z,29.10
2018-02-20T19:37:09.373Z,28.87
2018-02-20T19:40:12.731Z,28.27
2018-02-20T19:43:16.054Z,26.73
2018-02-20T19:46:20.193Z,23.62
2018-02-20T19:49:23.664Z,25.12
2018-02-20T19:52:27.044Z,23.40
2018-02-20T19:55:30.489Z,24.35
2018-02-20T19:58:33.919Z,23.95
2018-02-20T20:01:37.345Z,24.50
2018-02-20T20:04:41.684Z,27.20
2018-02-20T20:07:46.035Z,22.60
2018-02-20T20:10:49.490Z,23.52
2018-02-20T20:13:53.695Z,25.10
2018-02-20T20:16:57.076Z,23.87
2018-02-20T20:20:00.538Z,22.67
2018-02-20T20:23:03.980Z,24.48
2018-02-20T20:26:07.448Z,21.83
2018-02-20T20:29:10.920Z,23.92
2018-02-20T20:32:14.590Z,23.23
2018-02-20T20:35:17.990Z,21.05
2018-02-20T20:38:21.360Z,21.10
2018-02-20T20:41:25.513Z,24.80
2018-02-20T20:44:28.933Z,23.70
2018-02-20T20:47:33.152Z,21.65
2018-02-20T20:50:36.551Z,21.75
2018-02-20T20:53:39.912Z,21.65
2018-02-20T20:56:44.192Z,22.60
2018-02-20T20:59:48.365Z,23.23
2018-02-20T21:02:51.889Z,17.85
2018-02-20T21:05:55.385Z,18.12
2018-02-20T21:08:58.791Z,24.75
2018-02-20T21:12:02.170Z,23.05
2018-02-20T21:15:05.606Z,21.58
2018-02-20T21:18:09.797Z,21.92
2018-02-20T21:21:13.156Z,19.23
2018-02-20T21:24:16.895Z,21.80
2018-02-20T21:27:20.264Z,21.17
2018-02-20T21:30:23.700Z,23.58
2018-02-20T21:33:27.091Z,21.95
2018-02-20T21:36:30.487Z,22.98
2018-02-20T21:39:33.893Z,20.45
2018-02-20T21:42:37.279Z,19.25
2018-02-20T21:45:41.090Z,21.25
2018-02-20T21:48:44.665Z,22.10
2018-02-20T21:51:48.069Z,16.62
2018-02-20T21:54:51.394Z,21.20
2018-02-20T21:57:54.715Z,20.02
2018-02-20T22:00:58.104Z,23.95
2018-02-20T22:04:01.468Z,22.80
2018-02-20T22:07:04.982Z,22.92
2018-02-20T22:10:08.436Z,22.48
2018-02-20T22:13:11.749Z,23.73
2018-02-20T22:16:15.091Z,27.62
2018-02-20T22:19:18.478Z,24.17
2018-02-20T22:22:22.206Z,23.95
2018-02-20T22:25:25.622Z,23.87
2018-02-20T22:28:29.267Z,16.98
2018-02-20T22:31:32.702Z,22.85
2018-02-20T22:34:36.099Z,23.45
2018-02-20T22:37:39.451Z,24.23
2018-02-20T22:40:43.061Z,26.98
2018-02-20T22:43:46.858Z,21.73
2018-02-20T22:46:51.157Z,23.10
2018-02-20T22:49:54.529Z,23.45
2018-02-20T22:56:08.418Z,26.08
2018-02-20T22:59:12.579Z,25.77
2018-02-20T23:02:15.876Z,25.73
2018-02-20T23:05:19.246Z,26.67
2018-02-20T23:08:23.517Z,27.00
2018-02-20T23:11:38.679Z,28.77
2018-02-20T23:14:42.014Z,26.70
2018-02-20T23:17:45.676Z,26.85
2018-02-20T23:20:49.372Z,23.12
2018-02-20T23:23:52.794Z,21.65
2018-02-20T23:26:56.202Z,25.48
2018-02-20T23:29:59.501Z,21.02
2018-02-20T23:33:02.998Z,24.23
2018-02-20T23:36:06.540Z,22.13
2018-02-20T23:39:10.673Z,23.98
2018-02-20T23:42:14.020Z,23.23
2018-02-20T23:45:17.512Z,23.20
2018-02-20T23:48:20.947Z,22.85
2018-02-20T23:51:30.554Z,23.00
2018-02-20T23:54:34.098Z,23.05
2018-02-20T23:57:38.298Z,19.52
